createdAt,value
2022-08-30T00:15:19.393Z,99.90
2022-08-30T00:21:40.701Z,99.90
2022-08-30T00:33:58.334Z,99.90
2022-08-30T00:40:07.650Z,99.90
2022-08-30T01:10:52.672Z,99.90
2022-08-30T01:22:09.468Z,99.90
2022-08-30T01:27:13.511Z,99.90
2022-08-30T01:32:21.004Z,99.90
2022-08-30T01:37:28.022Z,99.90
2022-08-30T01:42:32.306Z,99.90
2022-08-30T01:47:35.812Z,99.90
2022-08-30T01:52:39.278Z,99.90
2022-08-30T01:57:43.625Z,99.90
2022-08-30T02:02:46.311Z,99.90
2022-08-30T02:07:48.974Z,99.90
2022-08-30T02:12:53.063Z,99.90
2022-08-30T02:17:55.827Z,99.90
2022-08-30T02:23:00.835Z,99.90
2022-08-30T02:28:05.737Z,99.90
2022-08-30T02:33:09.185Z,99.90
2022-08-30T02:38:11.916Z,99.90
2022-08-30T02:43:16.625Z,99.90
2022-08-30T02:48:20.457Z,99.90
2022-08-30T02:53:23.646Z,99.90
2022-08-30T02:58:31.303Z,99.90
2022-08-30T03:03:34.155Z,99.90
2022-08-30T03:08:37.791Z,99.90
2022-08-30T03:13:42.500Z,99.90
2022-08-30T03:18:45.308Z,99.90
2022-08-30T03:23:48.650Z,99.90
2022-08-30T03:28:53.440Z,99.90
2022-08-30T03:33:56.154Z,99.90
2022-08-30T03:38:58.908Z,99.90
2022-08-30T03:44:04.229Z,99.90
2022-08-30T03:49:09.479Z,99.90
2022-08-30T03:54:12.230Z,99.90
2022-08-30T03:59:16.461Z,99.90
2022-08-30T04:04:21.140Z,99.90
2022-08-30T04:09:24.795Z,99.90
2022-08-30T04:14:28.873Z,99.90
2022-08-30T04:19:31.852Z,99.90
2022-08-30T04:24:34.655Z,99.90
2022-08-30T04:29:38.677Z,99.90
2022-08-30T04:34:41.386Z,99.90
2022-08-30T04:39:44.069Z,99.90
2022-08-30T04:44:48.126Z,99.90
2022-08-30T04:49:50.805Z,99.90
2022-08-30T04:54:55.159Z,99.90
2022-08-30T04:59:59.196Z,99.90
2022-08-30T05:05:20.275Z,99.90
2022-08-30T05:10:23.501Z,99.90
2022-08-30T05:15:27.530Z,99.90
2022-08-30T05:20:30.329Z,99.90
2022-08-30T05:25:37.068Z,99.90
2022-08-30T05:30:41.572Z,99.90
2022-08-30T05:35:44.276Z,99.90
2022-08-30T05:40:47.028Z,99.90
2022-08-30T05:45:59.938Z,99.90
2022-08-30T05:51:08.358Z,99.90
2022-08-30T05:56:15.819Z,99.90
2022-08-30T06:01:25.859Z,99.90
2022-08-30T06:06:29.082Z,99.90
2022-08-30T06:11:31.959Z,99.90
2022-08-30T06:16:39.521Z,99.90
2022-08-30T06:21:43.307Z,99.90
2022-08-30T06:26:47.893Z,99.90
2022-08-30T06:31:51.955Z,99.90
2022-08-30T06:36:54.667Z,99.90
2022-08-30T06:41:57.372Z,99.90
2022-08-30T06:47:01.410Z,99.90
2022-08-30T06:52:05.200Z,99.90
2022-08-30T06:57:07.969Z,99.90
2022-08-30T07:02:12.431Z,99.90
2022-08-30T07:07:16.008Z,99.90
2022-08-30T07:12:18.708Z,99.90
2022-08-30T07:17:40.580Z,99.90
2022-08-30T07:46:26.023Z,99.90
2022-08-30T07:51:55.891Z,99.90
2022-08-30T08:10:24.384Z,99.90
2022-08-30T08:16:03.964Z,99.90
2022-08-30T08:21:17.234Z,99.90
2022-08-30T08:26:41.101Z,94.00
2022-08-30T08:32:19.816Z,85.90
2022-08-30T08:37:58.554Z,78.00
2022-08-30T08:44:00.478Z,74.40
2022-08-30T08:49:24.867Z,67.40
2022-08-30T08:54:47.997Z,60.80
2022-08-30T09:00:24.712Z,58.20
2022-08-30T09:05:34.311Z,52.50
2022-08-30T09:10:50.486Z,49.30
2022-08-30T09:15:59.490Z,46.40
2022-08-30T09:21:11.625Z,44.00
2022-08-30T09:26:14.643Z,42.80
2022-08-30T09:31:21.793Z,42.40
2022-08-30T09:36:29.466Z,39.80
2022-08-30T09:41:39.985Z,37.80
2022-08-30T09:46:50.103Z,35.00
2022-08-30T09:52:00.001Z,32.10
2022-08-30T09:57:13.120Z,33.10
2022-08-30T10:02:44.074Z,33.80
2022-08-30T10:07:53.734Z,32.00
2022-08-30T10:13:07.333Z,34.60
2022-08-30T10:18:19.672Z,40.50
2022-08-30T10:23:28.167Z,46.50
2022-08-30T10:28:36.017Z,40.30
2022-08-30T10:33:46.085Z,37.80
2022-08-30T10:38:51.848Z,36.00
2022-08-30T10:43:59.082Z,39.60
2022-08-30T10:49:06.580Z,36.10
2022-08-30T10:54:15.740Z,35.60
2022-08-30T11:19:34.408Z,50.30
2022-08-30T11:25:12.723Z,50.50
2022-08-30T11:30:47.434Z,51.40
2022-08-30T11:35:53.864Z,43.80
2022-08-30T11:41:10.478Z,38.20
2022-08-30T11:46:24.373Z,32.30
2022-08-30T11:52:02.975Z,30.00
2022-08-30T11:57:22.418Z,28.90
2022-08-30T12:02:56.363Z,27.40
2022-08-30T12:08:16.971Z,27.30
2022-08-30T12:13:55.280Z,32.10
2022-08-30T12:19:16.325Z,37.60
2022-08-30T12:24:34.862Z,41.70
2022-08-30T12:41:54.658Z,50.20
2022-08-30T12:53:14.155Z,41.70
2022-08-30T13:10:48.950Z,49.80
2022-08-30T13:17:05.032Z,53.40
2022-08-30T13:22:25.761Z,55.30
2022-08-30T13:27:31.054Z,57.10
2022-08-30T13:32:38.881Z,46.80
2022-08-30T13:37:49.687Z,39.00
2022-08-30T13:42:53.777Z,37.90
2022-08-30T13:47:58.185Z,42.60
2022-08-30T13:53:01.040Z,47.90
2022-08-30T13:58:03.955Z,51.50
2022-08-30T14:03:08.704Z,53.10
2022-08-30T14:13:35.756Z,43.40
2022-08-30T14:18:40.921Z,38.90
2022-08-30T14:23:43.791Z,37.50
2022-08-30T14:28:46.829Z,37.20
2022-08-30T14:33:55.998Z,35.50
2022-08-30T14:38:58.907Z,34.70
2022-08-30T14:44:02.242Z,34.00
2022-08-30T14:49:06.903Z,34.00
2022-08-30T14:54:13.901Z,35.90
2022-08-30T14:59:18.250Z,36.80
2022-08-30T15:04:22.426Z,35.10
2022-08-30T15:09:25.889Z,34.20
2022-08-30T15:14:29.546Z,35.10
2022-08-30T15:19:33.864Z,35.00
2022-08-30T15:24:36.604Z,37.20
2022-08-30T15:29:39.384Z,42.30
2022-08-30T15:34:43.471Z,42.20
2022-08-30T15:39:51.128Z,43.40
2022-08-30T15:44:54.536Z,46.30
2022-08-30T15:50:01.988Z,49.80
2022-08-30T15:55:06.697Z,51.30
2022-08-30T16:00:11.398Z,54.20
2022-08-30T16:05:15.864Z,57.30
2022-08-30T16:10:20.420Z,58.30
2022-08-30T16:15:23.232Z,59.90
2022-08-30T16:20:29.529Z,63.40
2022-08-30T16:25:40.628Z,64.30
2022-08-30T16:30:45.487Z,64.80
2022-08-30T16:35:53.142Z,63.70
2022-08-30T16:40:58.879Z,61.10
2022-08-30T16:46:02.673Z,61.60
2022-08-30T16:51:10.003Z,64.60
2022-08-30T16:56:15.898Z,67.70
2022-08-30T17:01:20.875Z,71.70
2022-08-30T17:06:26.576Z,75.20
2022-08-30T17:11:29.654Z,74.70
2022-08-30T17:16:32.840Z,75.80
2022-08-30T17:21:37.272Z,77.60
2022-08-30T17:26:41.801Z,80.30
2022-08-30T17:31:50.882Z,82.70
2022-08-30T17:37:13.752Z,86.30
2022-08-30T17:42:16.771Z,90.10
2022-08-30T17:47:19.534Z,90.80
2022-08-30T17:52:23.590Z,91.50
2022-08-30T17:57:26.374Z,92.10
2022-08-30T18:02:30.236Z,93.80
2022-08-30T18:07:34.704Z,95.00
2022-08-30T18:12:37.416Z,96.30
2022-08-30T18:17:41.203Z,98.70
2022-08-30T18:22:45.229Z,99.90
2022-08-30T18:27:57.174Z,99.90
2022-08-30T18:33:01.715Z,99.90
2022-08-30T18:38:07.097Z,99.90
2022-08-30T18:43:10.029Z,99.90
2022-08-30T18:48:14.389Z,99.90
2022-08-30T18:53:28.367Z,99.90
2022-08-30T18:58:33.049Z,99.90
2022-08-30T19:03:37.300Z,99.90
2022-08-30T19:08:45.879Z,99.90
2022-08-30T19:13:48.905Z,99.90
2022-08-30T19:18:54.183Z,99.90
2022-08-30T19:23:58.222Z,99.90
2022-08-30T19:29:01.692Z,99.90
2022-08-30T19:34:04.978Z,99.90
2022-08-30T19:39:09.927Z,99.90
2022-08-30T19:44:12.910Z,99.90
2022-08-30T19:49:15.597Z,99.90
2022-08-30T19:54:19.635Z,99.90
2022-08-30T19:59:22.519Z,99.90
2022-08-30T20:04:25.607Z,99.90
2022-08-30T20:09:29.649Z,99.90
2022-08-30T20:14:32.348Z,99.90
2022-08-30T20:19:35.177Z,99.90
2022-08-30T20:24:39.543Z,99.90
2022-08-30T20:29:46.714Z,99.90
2022-08-30T20:34:50.131Z,99.90
2022-08-30T20:39:56.892Z,99.90
2022-08-30T20:45:00.170Z,99.90
2022-08-30T20:50:05.667Z,99.90
2022-08-30T20:55:17.253Z,99.90
2022-08-30T21:00:20.250Z,99.90
2022-08-30T21:05:22.996Z,99.90
2022-08-30T21:10:27.229Z,99.90
2022-08-30T21:15:38.331Z,99.90
2022-08-30T21:20:41.282Z,99.90
2022-08-30T21:25:45.310Z,99.90
2022-08-30T21:30:48.029Z,99.90
2022-08-30T21:36:08.513Z,99.90
2022-08-30T21:41:12.831Z,99.90
2022-08-30T21:46:16.797Z,99.90
2022-08-30T21:51:19.802Z,99.90
2022-08-30T21:56:24.486Z,99.90
2022-08-30T22:01:30.128Z,99.90
2022-08-30T22:06:35.460Z,99.90
2022-08-30T22:11:39.463Z,99.90
2022-08-30T22:16:42.536Z,99.90
2022-08-30T22:21:47.897Z,99.90
2022-08-30T22:26:51.935Z,99.90
2022-08-30T22:31:54.952Z,99.90
2022-08-30T22:36:58.035Z,99.90
2022-08-30T22:42:02.117Z,99.90
2022-08-30T22:47:05.002Z,99.90
2022-08-30T22:52:07.912Z,99.90
2022-08-30T22:57:14.802Z,99.90
2022-08-30T23:02:17.604Z,99.90
2022-08-30T23:07:20.341Z,99.90
2022-08-30T23:12:24.430Z,99.90
2022-08-30T23:17:27.185Z,99.90
2022-08-30T23:22:34.509Z,99.90
2022-08-30T23:27:56.476Z,99.90
2022-08-30T23:33:17.009Z,99.90
2022-08-30T23:38:37.695Z,99.90
2022-08-30T23:43:59.588Z,99.90
2022-08-30T23:49:20.408Z,99.90
2022-08-30T23:54:41.020Z,99.90
